createdAt,value
2019-03-17T00:00:51.519Z,99004.84
2019-03-17T00:02:58.585Z,99001.82
2019-03-17T00:05:06.562Z,98998.82
2019-03-17T00:07:13.310Z,98996.70
2019-03-17T00:09:19.971Z,98991.55
2019-03-17T00:11:26.637Z,98992.93
2019-03-17T00:13:34.333Z,98992.50
2019-03-17T00:15:41.898Z,98991.27
2019-03-17T00:17:48.560Z,98986.11
2019-03-17T00:19:55.258Z,98987.09
2019-03-17T00:22:01.924Z,98985.44
2019-03-17T00:24:08.681Z,98985.02
2019-03-17T00:26:15.374Z,98978.91
2019-03-17T00:28:22.042Z,98971.92
2019-03-17T00:30:28.730Z,98974.96
2019-03-17T00:32:35.678Z,98964.97
2019-03-17T00:34:44.427Z,98971.11
2019-03-17T00:36:50.686Z,98967.68
2019-03-17T00:38:57.393Z,98964.28
2019-03-17T00:41:04.180Z,98957.78
2019-03-17T00:43:13.855Z,98958.70
2019-03-17T00:45:20.813Z,98954.39
2019-03-17T00:47:27.482Z,98951.78
2019-03-17T00:49:34.163Z,98946.98
2019-03-17T00:51:40.854Z,98949.63
2019-03-17T00:53:47.515Z,98940.94
2019-03-17T00:55:54.182Z,98939.60
2019-03-17T00:58:00.868Z,98935.72
2019-03-17T01:00:15.765Z,98933.11
2019-03-17T01:02:22.430Z,98937.94
2019-03-17T01:04:29.112Z,98943.22
2019-03-17T01:06:35.779Z,98940.61
2019-03-17T01:08:42.502Z,98938.05
2019-03-17T01:10:49.368Z,98939.00
2019-03-17T01:12:56.019Z,98932.07
2019-03-17T01:15:02.689Z,98938.20
2019-03-17T01:17:09.390Z,98931.70
2019-03-17T01:19:16.052Z,98934.77
2019-03-17T01:21:22.715Z,98926.98
2019-03-17T01:23:29.449Z,98930.05
2019-03-17T01:25:36.173Z,98927.50
2019-03-17T01:27:42.831Z,98931.48
2019-03-17T01:29:49.690Z,98932.35
2019-03-17T01:31:56.426Z,98931.98
2019-03-17T01:34:03.141Z,98933.69
2019-03-17T01:36:09.823Z,98930.64
2019-03-17T01:38:16.482Z,98925.08
2019-03-17T01:40:23.212Z,98927.69
2019-03-17T01:42:29.890Z,98923.34
2019-03-17T01:44:36.608Z,98921.24
2019-03-17T01:46:43.261Z,98919.93
2019-03-17T01:48:49.941Z,98916.44
2019-03-17T01:50:56.688Z,98905.98
2019-03-17T01:53:03.343Z,98905.11
2019-03-17T01:55:10.028Z,98906.88
2019-03-17T01:57:16.684Z,98901.19
2019-03-17T01:59:23.336Z,98905.13
2019-03-17T02:01:30.030Z,98901.21
2019-03-17T02:03:36.755Z,98906.86
2019-03-17T02:05:43.413Z,98909.48
2019-03-17T02:07:50.084Z,98905.10
2019-03-17T02:09:56.745Z,98909.48
2019-03-17T02:12:03.396Z,98905.61
2019-03-17T02:14:10.084Z,98902.55
2019-03-17T02:16:16.736Z,98896.89
2019-03-17T02:18:23.395Z,98897.75
2019-03-17T02:20:30.153Z,98896.89
2019-03-17T02:22:36.888Z,98903.08
2019-03-17T02:24:43.550Z,98894.33
2019-03-17T02:26:50.233Z,98896.09
2019-03-17T02:28:56.884Z,98897.88
2019-03-17T02:31:03.543Z,98900.04
2019-03-17T02:33:11.228Z,98893.98
2019-03-17T02:35:17.966Z,98888.33
2019-03-17T02:37:24.730Z,98883.95
2019-03-17T02:39:31.414Z,98885.73
2019-03-17T02:41:38.069Z,98882.74
2019-03-17T02:43:44.726Z,98870.50
2019-03-17T02:45:51.407Z,98866.58
2019-03-17T02:47:58.131Z,98866.16
2019-03-17T02:50:06.004Z,98873.56
2019-03-17T02:52:12.685Z,98883.17
2019-03-17T02:54:20.787Z,98878.40
2019-03-17T02:56:27.456Z,98870.05
2019-03-17T02:58:34.204Z,98867.48
2019-03-17T03:00:40.940Z,98864.92
2019-03-17T03:02:47.596Z,98860.55
2019-03-17T03:04:54.275Z,98861.00
2019-03-17T03:07:00.929Z,98865.78
2019-03-17T03:09:08.693Z,98859.67
2019-03-17T03:11:15.377Z,98858.84
2019-03-17T03:13:22.063Z,98865.00
2019-03-17T03:15:28.763Z,98856.17
2019-03-17T03:17:35.448Z,98848.38
2019-03-17T03:19:42.188Z,98847.12
2019-03-17T03:21:49.844Z,98838.41
2019-03-17T03:23:56.527Z,98832.73
2019-03-17T03:26:03.263Z,98837.11
2019-03-17T03:28:10.000Z,98835.37
2019-03-17T03:30:16.687Z,98839.75
2019-03-17T03:32:23.478Z,98835.87
2019-03-17T03:34:30.093Z,98835.47
2019-03-17T03:36:36.764Z,98841.60
2019-03-17T03:38:43.422Z,98837.69
2019-03-17T03:40:50.141Z,98832.91
2019-03-17T03:42:56.819Z,98839.00
2019-03-17T03:45:03.942Z,98836.91
2019-03-17T03:47:10.609Z,98840.88
2019-03-17T03:49:17.371Z,98837.83
2019-03-17T03:51:24.208Z,98838.28
2019-03-17T03:53:31.000Z,98838.28
2019-03-17T03:55:41.656Z,98840.05
2019-03-17T03:57:46.052Z,98832.25
2019-03-17T03:59:52.707Z,98834.45
2019-03-17T04:01:59.398Z,98832.25
2019-03-17T04:04:07.071Z,98834.39
2019-03-17T04:06:25.587Z,98826.16
2019-03-17T04:08:22.118Z,98830.17
2019-03-17T04:10:28.771Z,98836.73
2019-03-17T04:12:35.503Z,98818.43
2019-03-17T04:14:42.182Z,98811.45
2019-03-17T04:16:48.847Z,98815.81
2019-03-17T04:18:55.507Z,98807.98
2019-03-17T04:21:02.192Z,98807.58
2019-03-17T04:23:08.917Z,98810.21
2019-03-17T04:25:17.462Z,98816.80
2019-03-17T04:27:24.223Z,98820.75
2019-03-17T04:29:31.067Z,98829.11
2019-03-17T04:31:37.723Z,98823.48
2019-03-17T04:33:44.501Z,98824.34
2019-03-17T04:35:52.258Z,98821.31
2019-03-17T04:37:58.910Z,98826.11
2019-03-17T04:40:08.814Z,98823.51
2019-03-17T04:42:15.470Z,98821.36
2019-03-17T04:44:22.262Z,98821.84
2019-03-17T04:46:28.935Z,98827.53
2019-03-17T04:48:35.587Z,98825.81
2019-03-17T04:50:42.243Z,98828.45
2019-03-17T04:52:49.031Z,98830.64
2019-03-17T04:54:55.690Z,98824.56
2019-03-17T04:57:02.364Z,98825.45
2019-03-17T04:59:09.054Z,98832.89
2019-03-17T05:01:15.706Z,98822.86
2019-03-17T05:03:22.367Z,98823.72
2019-03-17T05:05:28.974Z,98825.91
2019-03-17T05:07:35.621Z,98823.33
2019-03-17T05:09:42.282Z,98820.70
2019-03-17T05:11:49.032Z,98818.97
2019-03-17T05:13:55.763Z,98817.22
2019-03-17T05:16:02.486Z,98823.76
2019-03-17T05:18:09.194Z,98825.98
2019-03-17T05:20:15.865Z,98822.97
2019-03-17T05:22:23.021Z,98822.97
2019-03-17T05:24:31.101Z,98817.28
2019-03-17T05:26:37.767Z,98819.48
2019-03-17T05:28:44.425Z,98822.11
2019-03-17T05:30:51.114Z,98816.89
2019-03-17T05:32:57.770Z,98809.46
2019-03-17T05:35:05.646Z,98812.56
2019-03-17T05:37:12.310Z,98810.84
2019-03-17T05:39:19.164Z,98807.38
2019-03-17T05:41:25.825Z,98809.59
2019-03-17T05:43:32.604Z,98816.59
2019-03-17T05:45:39.263Z,98810.08
2019-03-17T05:47:45.941Z,98816.64
2019-03-17T05:49:52.536Z,98818.41
2019-03-17T05:51:59.381Z,98821.49
2019-03-17T05:54:06.241Z,98819.34
2019-03-17T05:56:13.920Z,98826.82
2019-03-17T05:58:20.577Z,98834.70
2019-03-17T06:00:27.307Z,98831.23
2019-03-17T06:02:34.056Z,98827.76
2019-03-17T06:04:40.713Z,98829.55
2019-03-17T06:06:47.405Z,98831.30
2019-03-17T06:08:54.089Z,98831.78
2019-03-17T06:11:00.748Z,98835.76
2019-03-17T06:13:07.473Z,98827.48
2019-03-17T06:15:14.191Z,98832.31
2019-03-17T06:17:20.847Z,98833.66
2019-03-17T06:19:27.513Z,98831.44
2019-03-17T06:21:34.180Z,98824.89
2019-03-17T06:23:40.924Z,98831.08
2019-03-17T06:25:47.663Z,98831.99
2019-03-17T06:27:54.363Z,98839.42
2019-03-17T06:30:01.023Z,98843.34
2019-03-17T06:32:07.724Z,98841.19
2019-03-17T06:34:14.412Z,98837.69
2019-03-17T06:36:21.147Z,98834.63
2019-03-17T06:38:27.806Z,98839.89
2019-03-17T06:40:34.488Z,98835.55
2019-03-17T06:42:41.307Z,98834.23
2019-03-17T06:44:48.598Z,98839.51
2019-03-17T06:46:55.287Z,98842.63
2019-03-17T06:49:01.953Z,98836.09
2019-03-17T06:51:08.968Z,98830.42
2019-03-17T06:53:15.644Z,98831.33
2019-03-17T06:55:22.308Z,98826.53
2019-03-17T06:57:28.970Z,98833.98
2019-03-17T06:59:35.671Z,98840.58
2019-03-17T07:01:42.263Z,98828.33
2019-03-17T07:03:48.990Z,98830.55
2019-03-17T07:05:55.749Z,98827.50
2019-03-17T07:08:02.411Z,98826.63
2019-03-17T07:10:11.169Z,98826.22
2019-03-17T07:12:17.966Z,98822.71
2019-03-17T07:14:24.632Z,98825.34
2019-03-17T07:16:31.457Z,98821.38
2019-03-17T07:18:38.845Z,98822.72
2019-03-17T07:20:45.506Z,98821.36
2019-03-17T07:22:52.182Z,98819.59
2019-03-17T07:24:58.948Z,98811.70
2019-03-17T07:27:05.684Z,98807.24
2019-03-17T07:29:12.433Z,98805.00
2019-03-17T07:31:19.116Z,98804.47
2019-03-17T07:33:25.793Z,98802.47
2019-03-17T07:35:32.559Z,98802.75
2019-03-17T07:37:39.258Z,98800.86
2019-03-17T07:39:47.024Z,98795.08
2019-03-17T07:41:53.707Z,98804.99
2019-03-17T07:44:00.458Z,98789.97
2019-03-17T07:46:07.137Z,98800.56
2019-03-17T07:48:13.851Z,98803.73
2019-03-17T07:50:20.590Z,98794.89
2019-03-17T07:52:27.315Z,98794.31
2019-03-17T07:54:35.195Z,98790.02
2019-03-17T07:56:42.099Z,98786.44
2019-03-17T07:58:48.766Z,98792.31
2019-03-17T08:00:55.433Z,98793.68
2019-03-17T08:03:02.130Z,98789.30
2019-03-17T08:05:10.827Z,98790.47
2019-03-17T08:07:19.401Z,98795.99
2019-03-17T08:09:26.128Z,98794.97
2019-03-17T08:11:32.772Z,98788.94
2019-03-17T08:13:39.369Z,98782.83
2019-03-17T08:15:46.056Z,98788.61
2019-03-17T08:17:52.721Z,98790.06
2019-03-17T08:19:59.389Z,98787.37
2019-03-17T08:22:06.120Z,98777.70
2019-03-17T08:24:12.788Z,98782.14
2019-03-17T08:26:19.537Z,98789.39
2019-03-17T08:28:26.249Z,98792.39
2019-03-17T08:30:32.927Z,98781.69
2019-03-17T08:32:41.269Z,98781.05
2019-03-17T08:34:48.004Z,98782.34
2019-03-17T08:36:54.759Z,98782.98
2019-03-17T08:39:01.492Z,98789.80
2019-03-17T08:41:08.554Z,98789.63
2019-03-17T08:43:15.297Z,98793.95
2019-03-17T08:45:21.970Z,98791.69
2019-03-17T08:47:28.856Z,98789.69
2019-03-17T08:49:35.627Z,98788.35
2019-03-17T08:51:42.295Z,98788.27
2019-03-17T08:53:48.977Z,98786.02
2019-03-17T08:55:55.639Z,98786.28
2019-03-17T08:58:02.306Z,98787.31
2019-03-17T09:00:12.970Z,98777.81
2019-03-17T09:02:19.633Z,98776.56
2019-03-17T09:04:26.370Z,98773.33
2019-03-17T09:06:33.049Z,98774.94
2019-03-17T09:08:39.711Z,98772.16
2019-03-17T09:10:46.386Z,98770.86
2019-03-17T09:12:53.188Z,98763.75
2019-03-17T09:14:59.863Z,98759.61
2019-03-17T09:17:14.318Z,98764.29
2019-03-17T09:19:15.092Z,98753.81
2019-03-17T09:21:21.841Z,98759.75
2019-03-17T09:23:28.567Z,98764.05
2019-03-17T09:25:35.260Z,98757.38
2019-03-17T09:27:42.001Z,98751.34
2019-03-17T09:29:48.867Z,98756.55
2019-03-17T09:31:56.804Z,98747.87
2019-03-17T09:34:03.465Z,98748.88
2019-03-17T09:36:10.217Z,98746.09
2019-03-17T09:38:16.907Z,98746.88
2019-03-17T09:40:23.563Z,98740.72
2019-03-17T09:42:30.219Z,98741.50
2019-03-17T09:44:36.990Z,98733.52
2019-03-17T09:46:43.654Z,98734.59
2019-03-17T09:48:50.721Z,98735.48
2019-03-17T09:50:57.476Z,98727.95
2019-03-17T09:53:04.163Z,98736.23
2019-03-17T09:55:11.408Z,98731.56
2019-03-17T09:57:18.171Z,98734.67
2019-03-17T09:59:24.904Z,98726.89
2019-03-17T10:01:31.579Z,98723.50
2019-03-17T10:03:38.278Z,98717.25
2019-03-17T10:05:44.930Z,98721.62
2019-03-17T10:07:51.594Z,98715.84
2019-03-17T10:09:58.283Z,98719.77
2019-03-17T10:12:04.937Z,98723.05
2019-03-17T10:14:11.615Z,98717.14
2019-03-17T10:16:18.379Z,98721.86
2019-03-17T10:18:25.080Z,98703.77
2019-03-17T10:20:31.738Z,98704.53
2019-03-17T10:22:39.909Z,98702.25
2019-03-17T10:24:46.687Z,98698.69
2019-03-17T10:26:53.370Z,98689.44
2019-03-17T10:29:00.188Z,98695.13
2019-03-17T10:31:06.850Z,98694.94
2019-03-17T10:33:13.515Z,98695.63
2019-03-17T10:35:20.272Z,98699.27
2019-03-17T10:37:27.003Z,98700.02
2019-03-17T10:39:33.693Z,98701.91
2019-03-17T10:41:40.453Z,98697.44
2019-03-17T10:43:47.105Z,98688.38
2019-03-17T10:45:53.841Z,98693.38
2019-03-17T10:48:00.524Z,98688.11
2019-03-17T10:50:14.211Z,98685.76
2019-03-17T10:52:21.087Z,98681.13
2019-03-17T10:54:27.834Z,98673.95
2019-03-17T10:56:34.566Z,98671.42
2019-03-17T10:58:41.234Z,98661.73
2019-03-17T11:00:47.973Z,98662.22
2019-03-17T11:02:54.708Z,98662.83
2019-03-17T11:05:01.445Z,98667.77
2019-03-17T11:07:08.399Z,98652.53
2019-03-17T11:09:24.785Z,98656.72
2019-03-17T11:11:23.461Z,98657.84
2019-03-17T11:13:30.157Z,98648.37
2019-03-17T11:15:36.811Z,98650.28
2019-03-17T11:17:43.475Z,98645.48
2019-03-17T11:19:50.337Z,98649.14
2019-03-17T11:21:57.076Z,98650.30
2019-03-17T11:24:03.880Z,98655.97
2019-03-17T11:26:10.570Z,98645.37
2019-03-17T11:28:17.341Z,98658.30
2019-03-17T11:30:24.191Z,98652.90
2019-03-17T11:32:30.953Z,98644.59
2019-03-17T11:34:37.610Z,98652.20
2019-03-17T11:36:44.280Z,98655.47
2019-03-17T11:38:51.049Z,98649.70
2019-03-17T11:40:57.712Z,98646.67
2019-03-17T11:43:04.381Z,98654.75
2019-03-17T11:45:17.179Z,98650.27
2019-03-17T11:47:23.911Z,98655.77
2019-03-17T11:49:30.718Z,98656.23
2019-03-17T11:51:37.409Z,98649.56
2019-03-17T11:53:44.069Z,98640.10
2019-03-17T11:55:50.726Z,98630.19
2019-03-17T11:57:57.417Z,98633.92
2019-03-17T12:00:06.125Z,98632.52
2019-03-17T12:02:12.855Z,98629.85
2019-03-17T12:04:20.714Z,98641.10
2019-03-17T12:06:27.443Z,98633.52
2019-03-17T12:08:34.304Z,98626.12
2019-03-17T12:10:40.985Z,98630.84
2019-03-17T12:12:47.649Z,98619.42
2019-03-17T12:14:54.424Z,98629.28
2019-03-17T12:17:01.106Z,98623.31
2019-03-17T12:19:07.765Z,98625.51
2019-03-17T12:21:14.500Z,98616.63
2019-03-17T12:23:21.175Z,98611.55
2019-03-17T12:25:27.897Z,98616.81
2019-03-17T12:27:34.556Z,98609.88
2019-03-17T12:29:45.562Z,98607.45
2019-03-17T12:31:52.298Z,98599.80
2019-03-17T12:33:58.962Z,98607.81
2019-03-17T12:36:05.655Z,98603.73
2019-03-17T12:38:12.379Z,98611.95
2019-03-17T12:40:19.235Z,98598.05
2019-03-17T12:42:26.125Z,98593.11
2019-03-17T12:44:32.777Z,98581.03
2019-03-17T12:46:39.512Z,98582.77
2019-03-17T12:48:46.198Z,98583.29
2019-03-17T12:50:52.931Z,98574.00
2019-03-17T12:52:59.588Z,98567.34
2019-03-17T12:55:08.700Z,98567.39
2019-03-17T12:57:15.418Z,98573.27
2019-03-17T12:59:23.613Z,98569.88
2019-03-17T13:01:30.345Z,98558.77
2019-03-17T13:03:37.088Z,98562.92
2019-03-17T13:05:43.798Z,98555.20
2019-03-17T13:07:50.516Z,98554.13
2019-03-17T13:09:57.230Z,98547.83
2019-03-17T13:12:03.887Z,98558.17
2019-03-17T13:14:10.566Z,98553.20
2019-03-17T13:16:17.228Z,98555.47
2019-03-17T13:18:23.926Z,98561.36
2019-03-17T13:20:30.684Z,98557.73
2019-03-17T13:22:37.340Z,98557.21
2019-03-17T13:24:44.080Z,98559.26
2019-03-17T13:26:50.901Z,98549.58
2019-03-17T13:28:57.776Z,98554.09
2019-03-17T13:31:04.436Z,98557.05
2019-03-17T13:33:11.209Z,98552.46
2019-03-17T13:35:18.121Z,98555.07
2019-03-17T13:37:24.852Z,98548.36
2019-03-17T13:39:31.543Z,98547.39
2019-03-17T13:41:38.196Z,98552.77
2019-03-17T13:43:44.847Z,98545.80
2019-03-17T13:45:52.617Z,98553.42
2019-03-17T13:47:59.262Z,98546.41
2019-03-17T13:50:10.387Z,98548.36
2019-03-17T13:52:17.064Z,98549.28
2019-03-17T13:54:25.189Z,98547.48
2019-03-17T13:56:31.852Z,98538.27
2019-03-17T13:58:38.680Z,98540.52
2019-03-17T14:00:45.352Z,98542.27
2019-03-17T14:02:52.010Z,98534.48
2019-03-17T14:04:58.769Z,98538.31
2019-03-17T14:07:05.429Z,98531.98
2019-03-17T14:09:12.178Z,98532.17
2019-03-17T14:11:18.926Z,98525.65
2019-03-17T14:13:25.586Z,98526.70
2019-03-17T14:15:32.307Z,98524.36
2019-03-17T14:17:38.999Z,98528.70
2019-03-17T14:19:45.670Z,98533.98
2019-03-17T14:21:52.338Z,98526.86
2019-03-17T14:23:59.010Z,98533.88
2019-03-17T14:26:05.821Z,98544.13
2019-03-17T14:28:12.483Z,98537.63
2019-03-17T14:30:19.346Z,98536.81
2019-03-17T14:32:26.085Z,98522.36
2019-03-17T14:34:34.204Z,98524.20
2019-03-17T14:36:40.893Z,98519.45
2019-03-17T14:38:47.544Z,98531.03
2019-03-17T14:40:57.098Z,98529.18
2019-03-17T14:43:02.760Z,98522.41
2019-03-17T14:45:13.801Z,98521.29
2019-03-17T14:47:20.460Z,98524.20
2019-03-17T14:49:27.357Z,98519.16
2019-03-17T14:51:34.082Z,98521.88
2019-03-17T14:53:40.743Z,98518.87
2019-03-17T14:55:47.430Z,98516.20
2019-03-17T14:57:54.092Z,98510.41
2019-03-17T15:00:00.791Z,98507.34
2019-03-17T15:02:07.470Z,98499.92
2019-03-17T15:04:14.217Z,98484.49
2019-03-17T15:06:20.853Z,98479.27
2019-03-17T15:08:29.179Z,98488.66
2019-03-17T15:10:35.916Z,98486.97
2019-03-17T15:12:42.574Z,98485.70
2019-03-17T15:14:49.264Z,98488.36
2019-03-17T15:16:55.998Z,98485.70
2019-03-17T15:19:02.720Z,98485.75
2019-03-17T15:21:09.783Z,98482.27
2019-03-17T15:23:17.617Z,98484.94
2019-03-17T15:25:24.573Z,98490.35
2019-03-17T15:27:31.334Z,98484.22
2019-03-17T15:29:38.081Z,98480.23
2019-03-17T15:31:44.748Z,98478.15
2019-03-17T15:33:51.719Z,98481.38
2019-03-17T15:35:58.686Z,98484.24
2019-03-17T15:38:05.819Z,98479.65
2019-03-17T15:40:17.587Z,98488.75
2019-03-17T15:42:24.266Z,98488.09
2019-03-17T15:44:30.944Z,98489.63
2019-03-17T15:46:37.685Z,98489.88
2019-03-17T15:48:44.409Z,98494.98
2019-03-17T15:50:51.065Z,98491.55
2019-03-17T15:52:57.975Z,98498.05
2019-03-17T15:55:07.142Z,98497.83
2019-03-17T15:57:13.880Z,98493.07
2019-03-17T15:59:20.561Z,98489.37
2019-03-17T16:01:27.210Z,98489.05
2019-03-17T16:03:33.868Z,98492.78
2019-03-17T16:05:40.552Z,98507.69
2019-03-17T16:07:47.716Z,98498.70
2019-03-17T16:09:54.371Z,98496.75
2019-03-17T16:12:01.133Z,98488.55
2019-03-17T16:14:08.865Z,98487.77
2019-03-17T16:16:16.598Z,98491.57
2019-03-17T16:18:23.353Z,98479.07
2019-03-17T16:20:30.262Z,98482.03
2019-03-17T16:22:36.934Z,98494.34
2019-03-17T16:24:43.675Z,98488.34
2019-03-17T16:26:50.324Z,98494.98
2019-03-17T16:28:57.053Z,98490.38
2019-03-17T16:31:06.066Z,98491.08
2019-03-17T16:33:12.793Z,98498.64
2019-03-17T16:35:19.688Z,98499.97
2019-03-17T16:37:26.450Z,98495.81
2019-03-17T16:39:33.184Z,98499.49
2019-03-17T16:41:43.723Z,98502.23
2019-03-17T16:43:55.941Z,98508.19
2019-03-17T16:46:02.757Z,98508.08
2019-03-17T16:48:09.413Z,98512.41
2019-03-17T16:50:21.167Z,98506.45
2019-03-17T16:52:27.825Z,98502.24
2019-03-17T16:54:34.497Z,98501.90
2019-03-17T16:56:41.773Z,98492.23
2019-03-17T16:58:48.504Z,98500.30
2019-03-17T17:00:56.142Z,98504.53
2019-03-17T17:03:02.899Z,98508.27
2019-03-17T17:05:12.735Z,98509.38
2019-03-17T17:07:19.401Z,98520.77
2019-03-17T17:09:27.622Z,98529.89
2019-03-17T17:11:34.342Z,98537.61
2019-03-17T17:13:41.076Z,98535.67
2019-03-17T17:15:47.756Z,98530.02
2019-03-17T17:17:54.430Z,98535.44
2019-03-17T17:20:01.097Z,98539.80
2019-03-17T17:22:07.886Z,98535.31
2019-03-17T17:24:27.583Z,98531.56
2019-03-17T17:27:02.065Z,98530.36
2019-03-17T17:29:26.933Z,98532.64
2019-03-17T17:34:57.242Z,98534.62
2019-03-17T17:40:16.806Z,98536.58
2019-03-17T17:42:32.879Z,98540.69
2019-03-17T17:44:55.640Z,98534.11
2019-03-17T17:47:11.923Z,98542.95
2019-03-17T17:49:30.244Z,98540.80
2019-03-17T17:55:54.189Z,98544.20
2019-03-17T17:58:01.139Z,98543.55
2019-03-17T18:00:37.297Z,98546.59
2019-03-17T18:02:58.655Z,98540.59
2019-03-17T18:05:12.510Z,98543.77
2019-03-17T18:07:27.085Z,98538.19
2019-03-17T18:09:48.849Z,98539.19
2019-03-17T18:12:05.653Z,98540.86
2019-03-17T18:14:20.270Z,98542.20
2019-03-17T18:16:52.042Z,98547.31
2019-03-17T18:19:14.008Z,98535.16
2019-03-17T18:21:49.875Z,98545.73
2019-03-17T18:24:05.462Z,98541.90
2019-03-17T18:26:59.587Z,98544.90
2019-03-17T18:29:42.667Z,98542.28
2019-03-17T18:32:16.309Z,98546.29
2019-03-17T18:34:38.257Z,98542.69
2019-03-17T18:36:50.374Z,98538.52
2019-03-17T18:39:07.786Z,98535.08
2019-03-17T18:41:37.699Z,98536.42
2019-03-17T18:44:00.930Z,98533.50
2019-03-17T18:46:15.195Z,98541.58
2019-03-17T18:48:35.855Z,98536.79
2019-03-17T18:50:57.764Z,98543.17
2019-03-17T18:53:13.348Z,98544.32
2019-03-17T18:55:35.352Z,98544.41
2019-03-17T18:58:09.985Z,98542.58
2019-03-17T19:00:45.644Z,98542.52
2019-03-17T19:06:32.099Z,98559.10
2019-03-17T19:12:21.212Z,98569.53
2019-03-17T19:14:37.091Z,98573.58
2019-03-17T19:16:53.374Z,98571.80
2019-03-17T19:22:10.514Z,98572.38
2019-03-17T19:28:07.390Z,98567.71
2019-03-17T19:30:28.797Z,98567.20
2019-03-17T19:32:37.705Z,98559.67
2019-03-17T19:34:51.162Z,98561.76
2019-03-17T19:37:09.379Z,98557.80
2019-03-17T19:40:03.933Z,98556.47
2019-03-17T19:42:13.968Z,98552.47
2019-03-17T19:48:18.109Z,98553.84
2019-03-17T19:50:35.454Z,98556.50
2019-03-17T19:53:09.293Z,98552.09
2019-03-17T19:56:01.414Z,98555.63
2019-03-17T19:58:15.006Z,98554.30
2019-03-17T20:00:22.834Z,98558.83
2019-03-17T20:02:33.740Z,98555.30
2019-03-17T20:04:40.469Z,98554.91
2019-03-17T20:06:53.493Z,98561.98
2019-03-17T20:09:10.595Z,98555.97
2019-03-17T20:11:45.292Z,98556.52
2019-03-17T20:14:23.904Z,98557.89
2019-03-17T20:16:44.261Z,98562.38
2019-03-17T20:18:53.852Z,98552.77
2019-03-17T20:21:06.736Z,98544.89
2019-03-17T20:23:21.465Z,98544.11
2019-03-17T20:25:39.080Z,98534.06
2019-03-17T20:27:47.071Z,98535.06
2019-03-17T20:29:58.824Z,98535.19
2019-03-17T20:32:10.204Z,98536.48
2019-03-17T20:35:02.672Z,98532.89
2019-03-17T20:37:18.777Z,98538.47
2019-03-17T20:39:26.490Z,98537.99
2019-03-17T20:42:07.335Z,98534.41
2019-03-17T20:44:59.955Z,98530.07
2019-03-17T20:47:34.929Z,98533.11
2019-03-17T20:50:19.187Z,98535.44
2019-03-17T20:52:41.375Z,98533.42
2019-03-17T20:54:49.504Z,98535.33
2019-03-17T20:57:01.073Z,98536.70
2019-03-17T20:59:15.428Z,98532.81
2019-03-17T21:01:49.767Z,98530.46
2019-03-17T21:04:25.235Z,98535.60
2019-03-17T21:06:42.339Z,98535.91
2019-03-17T21:08:49.581Z,98543.66
2019-03-17T21:11:33.494Z,98538.91
2019-03-17T21:13:52.614Z,98542.50
2019-03-17T21:16:11.511Z,98537.23
2019-03-17T21:18:23.265Z,98539.73
2019-03-17T21:21:40.206Z,98547.98
2019-03-17T21:24:14.203Z,98550.56
2019-03-17T21:26:29.365Z,98547.05
2019-03-17T21:28:39.902Z,98546.13
2019-03-17T21:31:43.059Z,98545.64
2019-03-17T21:33:51.077Z,98550.89
2019-03-17T21:35:59.099Z,98554.97
2019-03-17T21:38:13.938Z,98552.37
2019-03-17T21:43:59.251Z,98558.62
2019-03-17T21:46:15.355Z,98560.03
2019-03-17T21:48:34.532Z,98553.47
2019-03-17T21:50:50.946Z,98557.05
2019-03-17T21:53:59.641Z,98556.26
2019-03-17T21:56:06.421Z,98561.57
2019-03-17T21:58:13.176Z,98567.79
2019-03-17T22:00:21.120Z,98571.29
2019-03-17T22:02:27.803Z,98573.06
2019-03-17T22:04:34.519Z,98573.52
2019-03-17T22:06:41.265Z,98575.31
2019-03-17T22:08:47.959Z,98579.75
2019-03-17T22:10:54.614Z,98577.14
2019-03-17T22:13:01.266Z,98584.16
2019-03-17T22:15:13.685Z,98575.83
2019-03-17T22:17:20.348Z,98581.52
2019-03-17T22:19:27.141Z,98581.44
2019-03-17T22:21:33.821Z,98589.77
2019-03-17T22:23:41.593Z,98582.39
2019-03-17T22:25:50.154Z,98581.53
2019-03-17T22:28:07.772Z,98588.13
2019-03-17T22:30:13.842Z,98582.45
2019-03-17T22:32:20.548Z,98587.34
2019-03-17T22:34:27.245Z,98589.52
2019-03-17T22:36:33.911Z,98594.38
2019-03-17T22:38:40.570Z,98586.98
2019-03-17T22:40:47.255Z,98581.73
2019-03-17T22:42:53.944Z,98596.70
2019-03-17T22:45:00.683Z,98598.91
2019-03-17T22:47:08.616Z,98612.05
2019-03-17T22:49:15.277Z,98615.95
2019-03-17T22:51:21.941Z,98630.84
2019-03-17T22:53:28.695Z,98637.00
2019-03-17T22:55:35.433Z,98654.16
2019-03-17T22:57:42.182Z,98658.93
2019-03-17T22:59:48.809Z,98665.45
2019-03-17T23:01:55.541Z,98667.92
2019-03-17T23:04:02.200Z,98671.75
2019-03-17T23:06:09.882Z,98675.77
2019-03-17T23:08:16.546Z,98693.64
2019-03-17T23:10:23.227Z,98696.06
2019-03-17T23:12:29.895Z,98698.34
2019-03-17T23:14:37.183Z,98712.02
2019-03-17T23:16:43.926Z,98703.34
2019-03-17T23:18:50.605Z,98713.55
2019-03-17T23:20:57.258Z,98710.12
2019-03-17T23:23:03.990Z,98722.47
2019-03-17T23:25:12.468Z,98722.55
2019-03-17T23:27:19.932Z,98726.55
2019-03-17T23:29:26.606Z,98726.61
2019-03-17T23:31:33.363Z,98723.99
2019-03-17T23:33:40.021Z,98723.13
2019-03-17T23:35:46.703Z,98718.36
2019-03-17T23:37:53.360Z,98726.27
2019-03-17T23:40:00.038Z,98726.29
2019-03-17T23:42:06.772Z,98724.59
2019-03-17T23:44:13.447Z,98729.89
2019-03-17T23:46:20.040Z,98742.22
2019-03-17T23:48:26.691Z,98758.87
2019-03-17T23:50:33.312Z,98769.46
2019-03-17T23:52:39.910Z,98765.56
2019-03-17T23:54:46.562Z,98763.82
2019-03-17T23:56:53.250Z,98760.36
2019-03-17T23:58:59.904Z,98767.81
